createdAt,value
2024-03-07T05:17:42.830Z,1.36
2024-03-07T05:20:16.498Z,1.39
2024-03-07T05:22:51.169Z,1.47
2024-03-07T05:25:19.573Z,1.54
2024-03-07T05:27:47.020Z,1.61
2024-03-07T05:30:16.250Z,1.70
2024-03-07T05:32:44.197Z,1.79
2024-03-07T05:35:12.335Z,1.89
2024-03-07T05:37:43.221Z,2.01
2024-03-07T05:40:10.666Z,2.12
2024-03-07T05:42:37.199Z,2.19
2024-03-07T05:45:04.478Z,2.29
2024-03-07T05:47:31.634Z,2.37
2024-03-07T05:49:59.530Z,2.44
2024-03-07T05:52:26.024Z,2.52
2024-03-07T05:54:52.630Z,2.61
2024-03-07T05:57:19.287Z,2.67
2024-03-07T05:59:46.851Z,2.75
2024-03-07T06:02:16.313Z,2.80
2024-03-07T06:04:44.137Z,2.87
2024-03-07T06:07:12.158Z,2.91
2024-03-07T06:09:38.928Z,2.97
2024-03-07T06:12:16.360Z,3.01
2024-03-07T06:14:50.158Z,3.05
2024-03-07T06:17:19.134Z,3.06
2024-03-07T06:19:45.704Z,3.08
2024-03-07T06:22:13.627Z,3.15
2024-03-07T06:24:41.412Z,3.18
2024-03-07T06:27:16.820Z,3.22
2024-03-07T06:29:43.423Z,3.25
2024-03-07T06:32:11.135Z,3.28
2024-03-07T06:34:37.629Z,3.27
2024-03-07T06:37:04.114Z,3.31
2024-03-07T06:39:32.275Z,3.35
2024-03-07T06:41:59.008Z,3.39
2024-03-07T06:44:26.583Z,3.48
2024-03-07T06:46:53.263Z,3.57
2024-03-07T06:49:21.898Z,3.59
2024-03-07T06:51:48.434Z,3.69
2024-03-07T06:54:15.062Z,3.79
2024-03-07T06:56:44.671Z,3.96
2024-03-07T06:59:11.426Z,4.21
2024-03-07T07:01:38.033Z,4.40
2024-03-07T07:04:05.336Z,4.41
2024-03-07T07:06:32.325Z,4.38
2024-03-07T07:09:00.466Z,4.34
2024-03-07T07:11:30.622Z,4.33
2024-03-07T07:14:01.333Z,4.26
2024-03-07T07:16:28.426Z,4.26
2024-03-07T07:18:56.405Z,4.29
2024-03-07T07:21:22.927Z,4.39
2024-03-07T07:23:49.495Z,4.40
2024-03-07T07:26:16.069Z,4.43
2024-03-07T07:28:42.721Z,4.48
2024-03-07T07:31:10.618Z,4.47
2024-03-07T07:33:37.328Z,4.58
2024-03-07T07:36:04.849Z,4.64
2024-03-07T07:38:32.814Z,4.73
2024-03-07T07:40:59.780Z,4.91
2024-03-07T07:43:33.949Z,5.12
2024-03-07T07:46:10.238Z,5.29
2024-03-07T07:48:36.934Z,5.37
2024-03-07T07:51:06.279Z,5.39
2024-03-07T07:53:33.167Z,5.84
2024-03-07T07:55:59.889Z,6.26
2024-03-07T07:58:26.375Z,6.60
2024-03-07T08:00:53.389Z,6.76
2024-03-07T08:03:23.183Z,6.91
2024-03-07T08:05:49.871Z,7.05
2024-03-07T08:08:17.899Z,6.92
2024-03-07T08:10:47.012Z,7.18
2024-03-07T08:13:14.330Z,6.99
2024-03-07T08:15:41.491Z,7.18
2024-03-07T08:18:09.682Z,7.45
2024-03-07T08:20:39.830Z,7.27
2024-03-07T08:23:06.407Z,7.46
2024-03-07T08:25:33.093Z,7.48
2024-03-07T08:28:00.019Z,7.42
2024-03-07T08:30:27.950Z,7.42
2024-03-07T08:32:56.351Z,7.05
2024-03-07T08:35:24.082Z,6.91
2024-03-07T08:37:56.730Z,6.98
2024-03-07T08:40:28.298Z,7.03
2024-03-07T08:42:56.745Z,6.61
2024-03-07T08:45:23.999Z,6.44
2024-03-07T08:47:53.103Z,6.33
2024-03-07T08:50:20.126Z,6.41
2024-03-07T08:52:48.970Z,6.38
2024-03-07T08:55:18.309Z,6.46
2024-03-07T08:57:49.583Z,6.55
2024-03-07T09:00:23.465Z,6.69
2024-03-07T09:02:53.054Z,6.65
2024-03-07T09:05:20.854Z,6.68
2024-03-07T09:07:47.927Z,6.70
2024-03-07T09:10:18.413Z,6.70
2024-03-07T09:12:47.191Z,6.76
2024-03-07T09:15:14.379Z,6.80
2024-03-07T09:17:41.005Z,6.90
2024-03-07T09:20:11.842Z,7.01
2024-03-07T09:22:38.560Z,7.16
2024-03-07T09:25:07.068Z,7.08
2024-03-07T09:27:33.593Z,7.09
2024-03-07T09:30:01.550Z,7.05
2024-03-07T09:32:29.081Z,7.01
2024-03-07T09:34:55.964Z,7.08
2024-03-07T09:37:24.693Z,7.15
2024-03-07T09:39:51.331Z,7.10
2024-03-07T09:42:19.154Z,7.10
2024-03-07T09:44:47.647Z,7.07
2024-03-07T09:47:15.947Z,7.15
2024-03-07T09:49:42.661Z,7.13
2024-03-07T09:52:12.745Z,7.06
2024-03-07T09:54:40.199Z,6.96
2024-03-07T09:57:09.102Z,6.96
2024-03-07T09:59:37.437Z,7.10
2024-03-07T10:02:06.146Z,7.16
2024-03-07T10:04:42.206Z,7.16
2024-03-07T10:07:14.806Z,7.21
2024-03-07T10:09:42.904Z,7.42
2024-03-07T10:12:13.392Z,7.59
2024-03-07T10:14:48.924Z,7.68
2024-03-07T10:17:15.864Z,7.87
2024-03-07T10:19:43.925Z,8.07
2024-03-07T10:22:10.542Z,8.19
2024-03-07T10:24:37.092Z,8.24
2024-03-07T10:27:05.509Z,8.32
2024-03-07T10:29:32.450Z,8.26
2024-03-07T10:32:04.998Z,8.19
2024-03-07T10:34:34.286Z,8.07
2024-03-07T10:37:05.019Z,8.12
2024-03-07T10:39:32.551Z,8.02
2024-03-07T10:42:06.488Z,7.90
2024-03-07T10:44:39.607Z,7.84
2024-03-07T10:47:07.279Z,7.88
2024-03-07T10:49:37.827Z,7.94
2024-03-07T10:52:12.049Z,7.93
2024-03-07T10:54:56.813Z,7.98
2024-03-07T10:57:41.370Z,8.08
2024-03-07T11:00:31.352Z,8.10
2024-03-07T11:02:58.315Z,8.25
2024-03-07T11:05:30.469Z,8.44
2024-03-07T11:08:00.262Z,8.54
2024-03-07T11:10:27.674Z,8.78
2024-03-07T11:12:55.486Z,8.91
2024-03-07T11:15:24.007Z,9.07
2024-03-07T11:17:52.048Z,9.28
2024-03-07T11:20:22.915Z,9.56
2024-03-07T11:22:50.543Z,9.40
2024-03-07T11:25:22.241Z,9.38
2024-03-07T11:27:53.251Z,9.50
2024-03-07T11:30:22.356Z,9.59
2024-03-07T11:32:51.456Z,9.64
2024-03-07T11:35:26.566Z,9.79
2024-03-07T11:37:58.413Z,9.77
2024-03-07T11:40:45.196Z,9.74
2024-03-07T11:43:13.618Z,9.89
2024-03-07T11:45:45.985Z,9.87
2024-03-07T11:48:13.186Z,9.82
2024-03-07T11:50:41.223Z,9.69
2024-03-07T11:53:09.322Z,9.64
2024-03-07T11:55:52.381Z,9.65
2024-03-07T11:58:22.504Z,9.69
2024-03-07T12:00:50.407Z,9.68
2024-03-07T12:03:22.301Z,9.83
2024-03-07T12:05:49.925Z,10.08
2024-03-07T12:08:16.657Z,10.26
2024-03-07T12:10:48.688Z,10.52
2024-03-07T12:13:16.817Z,10.47
2024-03-07T12:15:45.732Z,10.41
2024-03-07T12:18:18.542Z,10.13
2024-03-07T12:20:55.009Z,10.08
2024-03-07T12:23:24.803Z,9.89
2024-03-07T12:26:00.390Z,9.98
2024-03-07T12:28:29.710Z,9.94
2024-03-07T12:30:59.011Z,9.73
2024-03-07T12:33:28.552Z,9.58
2024-03-07T12:36:07.114Z,9.33
2024-03-07T12:38:37.437Z,9.19
2024-03-07T12:41:09.656Z,9.13
2024-03-07T12:43:36.562Z,9.03
2024-03-07T12:46:06.569Z,8.98
2024-03-07T12:48:33.364Z,9.06
2024-03-07T12:51:02.458Z,9.14
2024-03-07T12:53:30.661Z,9.16
2024-03-07T12:55:57.488Z,9.31
2024-03-07T12:58:26.790Z,9.49
2024-03-07T13:00:53.807Z,9.61
2024-03-07T13:03:21.893Z,9.64
2024-03-07T13:05:48.730Z,9.71
2024-03-07T13:08:16.010Z,9.66
2024-03-07T13:10:43.361Z,9.59
2024-03-07T13:13:13.042Z,9.49
2024-03-07T13:15:40.435Z,9.41
2024-03-07T13:18:08.619Z,9.44
2024-03-07T13:20:37.394Z,9.55
2024-03-07T13:23:04.635Z,9.57
2024-03-07T13:25:33.995Z,9.62
2024-03-07T13:28:02.004Z,9.63
2024-03-07T13:30:29.114Z,9.65
2024-03-07T13:32:56.862Z,9.70
2024-03-07T13:35:24.188Z,9.69
2024-03-07T13:37:55.120Z,9.73
2024-03-07T13:40:25.082Z,9.66
2024-03-07T13:42:53.114Z,9.50
2024-03-07T13:45:22.020Z,9.28
2024-03-07T13:47:54.158Z,9.17
2024-03-07T13:50:35.595Z,9.15
2024-03-07T13:53:14.901Z,9.07
2024-03-07T13:55:53.887Z,9.07
2024-03-07T13:58:40.317Z,9.04
2024-03-07T14:01:24.839Z,9.07
2024-03-07T14:04:24.911Z,9.06
2024-03-07T14:07:06.649Z,9.08
2024-03-07T14:09:51.072Z,9.10
2024-03-07T14:12:35.879Z,9.13
2024-03-07T14:15:41.970Z,9.23
2024-03-07T14:18:29.196Z,9.25
2024-03-07T14:21:27.915Z,9.25
2024-03-07T14:24:17.411Z,9.20
2024-03-07T14:27:10.947Z,9.28
2024-03-07T14:29:45.781Z,9.35
2024-03-07T14:32:13.313Z,9.41
2024-03-07T14:34:51.450Z,9.38
2024-03-07T14:37:24.847Z,9.46
2024-03-07T14:39:56.275Z,9.47
2024-03-07T14:42:23.517Z,9.57
2024-03-07T14:44:51.902Z,9.57
2024-03-07T14:47:21.270Z,9.67
2024-03-07T14:49:47.766Z,9.62
2024-03-07T14:52:14.601Z,9.59
2024-03-07T14:54:42.753Z,9.60
2024-03-07T14:57:11.936Z,9.51
2024-03-07T14:59:39.108Z,9.49
2024-03-07T15:02:11.733Z,9.35
2024-03-07T15:04:40.014Z,9.25
2024-03-07T15:07:06.588Z,9.20
2024-03-07T15:09:34.991Z,9.07
2024-03-07T15:12:01.727Z,9.01
2024-03-07T15:14:37.308Z,8.89
2024-03-07T15:17:07.534Z,8.94
2024-03-07T15:19:35.954Z,8.97
2024-03-07T15:22:04.020Z,8.86
2024-03-07T15:24:31.014Z,8.85
2024-03-07T15:26:58.723Z,8.82
2024-03-07T15:29:25.427Z,8.80
2024-03-07T15:31:51.983Z,8.85
2024-03-07T15:34:20.667Z,8.85
2024-03-07T15:36:47.779Z,8.75
2024-03-07T15:39:20.906Z,8.80
2024-03-07T15:41:48.774Z,8.75
2024-03-07T15:44:16.174Z,8.72
2024-03-07T15:46:42.793Z,8.70
2024-03-07T15:49:10.067Z,8.66
2024-03-07T15:51:37.963Z,8.68
2024-03-07T15:54:06.108Z,8.71
2024-03-07T15:56:32.801Z,8.68
2024-03-07T15:58:59.402Z,8.73
2024-03-07T16:01:25.994Z,8.74
2024-03-07T16:03:52.589Z,8.73
2024-03-07T16:06:19.909Z,8.68
2024-03-07T16:08:47.892Z,8.67
2024-03-07T16:11:19.901Z,8.70
2024-03-07T16:13:47.114Z,8.67
2024-03-07T16:16:14.186Z,8.63
2024-03-07T16:18:42.915Z,8.60
2024-03-07T16:21:09.558Z,8.57
2024-03-07T16:23:36.259Z,8.64
2024-03-07T16:26:05.484Z,8.60
2024-03-07T16:28:32.049Z,8.59
2024-03-07T16:31:02.311Z,8.56
2024-03-07T16:33:29.673Z,8.50
2024-03-07T16:35:58.491Z,8.52
2024-03-07T16:38:25.408Z,8.48
2024-03-07T16:40:52.994Z,8.49
2024-03-07T16:43:20.955Z,8.44
2024-03-07T16:45:47.611Z,8.39
2024-03-07T16:48:17.094Z,8.38
2024-03-07T16:50:44.752Z,8.35
2024-03-07T16:53:11.896Z,8.28
2024-03-07T16:55:38.689Z,8.24
2024-03-07T16:58:13.421Z,8.18
2024-03-07T17:00:44.018Z,8.22
2024-03-07T17:03:13.290Z,8.17
2024-03-07T17:05:42.692Z,8.19
2024-03-07T17:08:14.936Z,8.17
2024-03-07T17:10:44.175Z,8.20
2024-03-07T17:13:12.672Z,8.15
2024-03-07T17:15:39.863Z,8.17
2024-03-07T17:18:11.195Z,8.10
2024-03-07T17:20:38.339Z,8.12
2024-03-07T17:23:06.894Z,8.10
2024-03-07T17:25:34.572Z,8.07
2024-03-07T17:28:01.604Z,8.33
2024-03-07T17:30:29.955Z,8.42
2024-03-07T17:32:59.814Z,8.37
2024-03-07T17:35:30.008Z,8.27
2024-03-07T17:37:58.498Z,8.17
2024-03-07T17:40:32.291Z,8.12
2024-03-07T17:43:03.412Z,8.08
2024-03-07T17:45:34.983Z,8.07
2024-03-07T17:48:02.734Z,8.06
2024-03-07T17:50:32.381Z,8.03
2024-03-07T17:53:04.599Z,8.00
2024-03-07T17:55:34.202Z,7.97
2024-03-07T17:58:04.320Z,7.97
2024-03-07T18:00:31.402Z,7.96
2024-03-07T18:02:59.411Z,7.96
2024-03-07T18:05:30.365Z,7.89
2024-03-07T18:08:06.127Z,7.89
2024-03-07T18:10:46.525Z,7.88
2024-03-07T18:13:16.512Z,7.89
2024-03-07T18:15:43.460Z,7.87
2024-03-07T18:18:14.304Z,7.86
2024-03-07T18:20:45.458Z,7.83
2024-03-07T18:23:15.501Z,7.78
2024-03-07T18:25:43.072Z,7.78
2024-03-07T18:28:10.575Z,7.78
2024-03-07T18:30:37.545Z,7.80
2024-03-07T18:33:09.404Z,7.78
2024-03-07T18:35:39.638Z,7.75
2024-03-07T18:38:08.050Z,7.74
2024-03-07T18:40:36.217Z,7.75
2024-03-07T18:43:07.963Z,7.75
2024-03-07T18:45:36.758Z,7.76
2024-03-07T18:48:08.214Z,7.75
2024-03-07T18:50:43.647Z,7.73
2024-03-07T18:53:10.197Z,7.73
2024-03-07T18:55:38.285Z,7.72
2024-03-07T18:58:06.038Z,7.74
2024-03-07T19:00:33.445Z,7.71
2024-03-07T19:03:01.714Z,7.69
2024-03-07T19:05:29.364Z,7.69
2024-03-07T19:07:56.677Z,7.66
2024-03-07T19:10:24.146Z,7.61
2024-03-07T19:12:52.385Z,7.60
2024-03-07T19:15:19.550Z,7.57
2024-03-07T19:17:50.339Z,7.55
2024-03-07T19:20:20.381Z,7.54
2024-03-07T19:22:47.529Z,7.53
2024-03-07T19:25:18.359Z,7.49
2024-03-07T19:27:46.845Z,7.47
2024-03-07T19:30:18.756Z,7.43
2024-03-07T19:32:46.190Z,7.41
2024-03-07T19:35:14.977Z,7.39
2024-03-07T19:37:45.159Z,7.36
2024-03-07T19:40:16.055Z,7.29
2024-03-07T19:42:42.745Z,7.23
2024-03-07T19:45:14.391Z,7.21
2024-03-07T19:47:43.494Z,7.20
2024-03-07T19:50:13.408Z,7.17
2024-03-07T19:52:40.289Z,7.19
2024-03-07T19:55:08.644Z,7.18
2024-03-07T19:57:37.412Z,7.12
2024-03-07T20:00:09.949Z,7.11
2024-03-07T20:02:40.149Z,7.09
2024-03-07T20:05:10.215Z,7.06
2024-03-07T20:07:38.177Z,7.02
2024-03-07T20:10:08.236Z,6.98
2024-03-07T20:12:36.669Z,6.98
2024-03-07T20:15:03.683Z,6.96
2024-03-07T20:17:31.030Z,6.91
2024-03-07T20:19:57.847Z,6.90
2024-03-07T20:22:26.212Z,6.88
2024-03-07T20:24:53.074Z,6.82
2024-03-07T20:27:19.914Z,6.71
2024-03-07T20:29:46.491Z,6.64
2024-03-07T20:32:14.371Z,6.60
2024-03-07T20:34:45.529Z,6.60
2024-03-07T20:37:12.061Z,6.55
2024-03-07T20:39:42.061Z,6.45
2024-03-07T20:42:11.280Z,6.40
2024-03-07T20:44:39.004Z,6.35
2024-03-07T20:47:08.860Z,6.29
2024-03-07T20:49:36.847Z,6.23
2024-03-07T20:52:04.650Z,6.20
2024-03-07T20:54:31.210Z,6.18
2024-03-07T20:56:59.172Z,6.13
2024-03-07T20:59:25.835Z,6.10
2024-03-07T21:01:53.134Z,6.05
2024-03-07T21:04:21.168Z,5.97
2024-03-07T21:06:48.700Z,5.93
2024-03-07T21:09:17.897Z,5.84
2024-03-07T21:11:46.104Z,5.75
2024-03-07T21:14:14.719Z,5.65
2024-03-07T21:16:44.898Z,5.57
2024-03-07T21:19:11.868Z,5.46
2024-03-07T21:21:38.491Z,5.38
2024-03-07T21:24:05.973Z,5.31
2024-03-07T21:26:32.739Z,5.23
2024-03-07T21:28:59.362Z,5.14
2024-03-07T21:31:27.661Z,5.09
2024-03-07T21:33:54.354Z,5.01
2024-03-07T21:36:20.883Z,4.91
2024-03-07T21:38:47.508Z,4.83
2024-03-07T21:41:15.171Z,4.78
2024-03-07T21:43:41.845Z,4.68
2024-03-07T21:46:09.209Z,4.63
2024-03-07T21:48:37.339Z,4.52
2024-03-07T21:51:04.357Z,4.43
2024-03-07T21:53:31.334Z,4.45
2024-03-07T21:56:00.182Z,4.36
2024-03-07T21:58:26.843Z,4.32
2024-03-07T22:00:54.117Z,4.29
2024-03-07T22:03:20.750Z,4.24
2024-03-07T22:05:48.717Z,4.18
2024-03-07T22:08:15.913Z,4.13
2024-03-07T22:10:42.593Z,4.08
2024-03-07T22:13:10.632Z,4.05
2024-03-07T22:15:37.240Z,4.00
2024-03-07T22:18:04.867Z,3.96
2024-03-07T22:20:31.677Z,3.96
2024-03-07T22:22:59.572Z,3.95
2024-03-07T22:25:26.800Z,3.91
2024-03-07T22:27:53.958Z,3.88
2024-03-07T22:30:24.604Z,3.85
2024-03-07T22:32:52.461Z,3.79
2024-03-07T22:35:19.588Z,3.78
2024-03-07T22:37:51.441Z,3.74
2024-03-07T22:40:24.802Z,3.68
2024-03-07T22:42:52.623Z,3.63
2024-03-07T22:45:19.535Z,3.61
2024-03-07T22:47:53.988Z,3.60
2024-03-07T22:50:28.224Z,3.59
2024-03-07T22:52:57.841Z,3.55
2024-03-07T22:55:26.366Z,3.60
2024-03-07T22:57:53.348Z,3.55
2024-03-07T23:00:24.548Z,3.56
2024-03-07T23:02:51.480Z,3.52
2024-03-07T23:05:18.414Z,3.49
2024-03-07T23:07:45.276Z,3.43
2024-03-07T23:10:11.945Z,3.39
2024-03-07T23:12:40.176Z,3.35
